sensor_id;sensor_type;location;lat;lon;timestamp;P1;durP1;ratioP1;P2;durP2;ratioP2
562;SDS011;266;49.514;8.294;2023-08-01T00:00:03;2.60;;;1.97;;
562;SDS011;266;49.514;8.294;2023-08-01T00:02:33;2.50;;;2.30;;
562;SDS011;266;49.514;8.294;2023-08-01T00:05:02;3.63;;;2.70;;
562;SDS011;266;49.514;8.294;2023-08-01T00:07:30;2.53;;;2.23;;
562;SDS011;266;49.514;8.294;2023-08-01T00:10:01;3.60;;;2.90;;
562;SDS011;266;49.514;8.294;2023-08-01T00:12:31;3.07;;;2.77;;
562;SDS011;266;49.514;8.294;2023-08-01T00:14:59;4.60;;;2.57;;
562;SDS011;266;49.514;8.294;2023-08-01T00:17:27;4.90;;;3.73;;
562;SDS011;266;49.514;8.294;2023-08-01T00:19:55;3.93;;;2.50;;
562;SDS011;266;49.514;8.294;2023-08-01T00:22:23;2.37;;;2.13;;
562;SDS011;266;49.514;8.294;2023-08-01T00:24:51;3.67;;;2.90;;
562;SDS011;266;49.514;8.294;2023-08-01T00:27:19;2.40;;;2.20;;
562;SDS011;266;49.514;8.294;2023-08-01T00:29:48;2.60;;;2.40;;
562;SDS011;266;49.514;8.294;2023-08-01T00:32:16;3.03;;;2.13;;
562;SDS011;266;49.514;8.294;2023-08-01T00:34:44;3.73;;;2.93;;
562;SDS011;266;49.514;8.294;2023-08-01T00:37:12;3.33;;;2.50;;
562;SDS011;266;49.514;8.294;2023-08-01T00:39:40;2.23;;;2.00;;
562;SDS011;266;49.514;8.294;2023-08-01T00:42:08;4.13;;;2.93;;
562;SDS011;266;49.514;8.294;2023-08-01T00:44:36;2.33;;;2.10;;
562;SDS011;266;49.514;8.294;2023-08-01T00:47:05;3.70;;;2.83;;
562;SDS011;266;49.514;8.294;2023-08-01T00:49:34;3.03;;;2.73;;
562;SDS011;266;49.514;8.294;2023-08-01T00:52:02;5.93;;;2.83;;
562;SDS011;266;49.514;8.294;2023-08-01T00:54:31;10.20;;;3.10;;
562;SDS011;266;49.514;8.294;2023-08-01T00:57:02;4.03;;;2.20;;
562;SDS011;266;49.514;8.294;2023-08-01T00:59:31;4.13;;;2.77;;
562;SDS011;266;49.514;8.294;2023-08-01T01:02:00;6.67;;;2.63;;
562;SDS011;266;49.514;8.294;2023-08-01T01:04:30;4.60;;;2.80;;
562;SDS011;266;49.514;8.294;2023-08-01T01:07:00;3.23;;;2.73;;
562;SDS011;266;49.514;8.294;2023-08-01T01:09:30;4.70;;;3.63;;
562;SDS011;266;49.514;8.294;2023-08-01T01:11:58;3.50;;;2.23;;
562;SDS011;266;49.514;8.294;2023-08-01T01:14:27;3.17;;;2.37;;
562;SDS011;266;49.514;8.294;2023-08-01T01:16:56;3.13;;;2.80;;
562;SDS011;266;49.514;8.294;2023-08-01T01:19:26;2.90;;;2.70;;
562;SDS011;266;49.514;8.294;2023-08-01T01:21:55;3.27;;;2.90;;
562;SDS011;266;49.514;8.294;2023-08-01T01:24:24;3.60;;;3.00;;
562;SDS011;266;49.514;8.294;2023-08-01T01:26:54;2.60;;;2.40;;
562;SDS011;266;49.514;8.294;2023-08-01T01:29:25;3.30;;;3.00;;
562;SDS011;266;49.514;8.294;2023-08-01T01:31:54;2.63;;;2.43;;
562;SDS011;266;49.514;8.294;2023-08-01T01:34:23;2.60;;;2.30;;
562;SDS011;266;49.514;8.294;2023-08-01T01:36:51;3.87;;;2.43;;
562;SDS011;266;49.514;8.294;2023-08-01T01:39:20;2.43;;;2.10;;
562;SDS011;266;49.514;8.294;2023-08-01T01:41:48;4.70;;;2.60;;
562;SDS011;266;49.514;8.294;2023-08-01T01:44:16;2.50;;;2.30;;
562;SDS011;266;49.514;8.294;2023-08-01T01:46:44;2.97;;;2.63;;
562;SDS011;266;49.514;8.294;2023-08-01T01:49:13;3.40;;;2.87;;
562;SDS011;266;49.514;8.294;2023-08-01T01:51:40;3.10;;;2.67;;
562;SDS011;266;49.514;8.294;2023-08-01T01:54:08;2.63;;;2.30;;
562;SDS011;266;49.514;8.294;2023-08-01T01:56:38;2.53;;;2.30;;
562;SDS011;266;49.514;8.294;2023-08-01T01:59:06;2.70;;;2.33;;
562;SDS011;266;49.514;8.294;2023-08-01T02:01:34;3.47;;;3.10;;
562;SDS011;266;49.514;8.294;2023-08-01T02:04:02;3.27;;;2.90;;
562;SDS011;266;49.514;8.294;2023-08-01T02:06:30;5.63;;;2.80;;
562;SDS011;266;49.514;8.294;2023-08-01T02:08:58;3.73;;;2.93;;
562;SDS011;266;49.514;8.294;2023-08-01T02:11:26;2.50;;;2.30;;
562;SDS011;266;49.514;8.294;2023-08-01T02:13:55;2.67;;;2.40;;
562;SDS011;266;49.514;8.294;2023-08-01T02:16:23;2.47;;;2.10;;
562;SDS011;266;49.514;8.294;2023-08-01T02:18:51;2.30;;;2.03;;
562;SDS011;266;49.514;8.294;2023-08-01T02:21:19;3.40;;;2.83;;
562;SDS011;266;49.514;8.294;2023-08-01T02:23:47;3.83;;;3.20;;
562;SDS011;266;49.514;8.294;2023-08-01T02:26:15;3.00;;;2.47;;
562;SDS011;266;49.514;8.294;2023-08-01T02:28:43;2.43;;;2.20;;
562;SDS011;266;49.514;8.294;2023-08-01T02:31:12;3.43;;;2.17;;
562;SDS011;266;49.514;8.294;2023-08-01T02:33:40;3.20;;;2.60;;
562;SDS011;266;49.514;8.294;2023-08-01T02:36:08;2.90;;;2.60;;
562;SDS011;266;49.514;8.294;2023-08-01T02:38:36;4.03;;;2.40;;
562;SDS011;266;49.514;8.294;2023-08-01T02:41:04;2.50;;;2.30;;
562;SDS011;266;49.514;8.294;2023-08-01T02:43:32;2.20;;;2.00;;
562;SDS011;266;49.514;8.294;2023-08-01T02:46:02;2.20;;;2.00;;
562;SDS011;266;49.514;8.294;2023-08-01T02:48:33;3.20;;;2.20;;
562;SDS011;266;49.514;8.294;2023-08-01T02:51:02;2.73;;;2.53;;
562;SDS011;266;49.514;8.294;2023-08-01T02:53:30;2.33;;;2.03;;
562;SDS011;266;49.514;8.294;2023-08-01T02:55:58;2.50;;;2.30;;
562;SDS011;266;49.514;8.294;2023-08-01T02:58:26;2.80;;;2.43;;
562;SDS011;266;49.514;8.294;2023-08-01T03:00:54;2.63;;;2.20;;
562;SDS011;266;49.514;8.294;2023-08-01T03:03:22;3.60;;;3.07;;
562;SDS011;266;49.514;8.294;2023-08-01T03:05:52;3.03;;;2.60;;
562;SDS011;266;49.514;8.294;2023-08-01T03:08:20;4.03;;;2.83;;
562;SDS011;266;49.514;8.294;2023-08-01T03:10:48;2.90;;;2.50;;
562;SDS011;266;49.514;8.294;2023-08-01T03:13:16;3.43;;;2.23;;
562;SDS011;266;49.514;8.294;2023-08-01T03:15:44;3.27;;;2.97;;
562;SDS011;266;49.514;8.294;2023-08-01T03:18:12;2.70;;;2.50;;
562;SDS011;266;49.514;8.294;2023-08-01T03:20:40;3.50;;;2.60;;
562;SDS011;266;49.514;8.294;2023-08-01T03:23:09;3.00;;;2.70;;
562;SDS011;266;49.514;8.294;2023-08-01T03:25:37;5.20;;;2.80;;
562;SDS011;266;49.514;8.294;2023-08-01T03:28:05;3.83;;;2.40;;
562;SDS011;266;49.514;8.294;2023-08-01T03:30:33;3.50;;;2.10;;
562;SDS011;266;49.514;8.294;2023-08-01T03:33:03;2.60;;;2.20;;
562;SDS011;266;49.514;8.294;2023-08-01T03:35:31;3.20;;;2.30;;
562;SDS011;266;49.514;8.294;2023-08-01T03:37:59;3.60;;;2.10;;
562;SDS011;266;49.514;8.294;2023-08-01T03:40:28;3.40;;;2.00;;
562;SDS011;266;49.514;8.294;2023-08-01T03:42:56;2.30;;;2.10;;
562;SDS011;266;49.514;8.294;2023-08-01T03:45:25;2.20;;;1.93;;
562;SDS011;266;49.514;8.294;2023-08-01T03:47:53;2.30;;;2.10;;
562;SDS011;266;49.514;8.294;2023-08-01T03:50:21;2.27;;;2.03;;
562;SDS011;266;49.514;8.294;2023-08-01T03:52:49;2.53;;;2.17;;
562;SDS011;266;49.514;8.294;2023-08-01T03:55:17;2.27;;;1.93;;
562;SDS011;266;49.514;8.294;2023-08-01T03:57:47;4.13;;;2.23;;
562;SDS011;266;49.514;8.294;2023-08-01T04:00:14;3.97;;;1.90;;
562;SDS011;266;49.514;8.294;2023-08-01T04:02:44;2.43;;;2.23;;
562;SDS011;266;49.514;8.294;2023-08-01T04:05:14;2.40;;;2.20;;
562;SDS011;266;49.514;8.294;2023-08-01T04:07:42;2.00;;;1.90;;
562;SDS011;266;49.514;8.294;2023-08-01T04:10:10;2.53;;;1.90;;
562;SDS011;266;49.514;8.294;2023-08-01T04:12:38;2.40;;;2.03;;
562;SDS011;266;49.514;8.294;2023-08-01T04:15:09;2.50;;;2.07;;
562;SDS011;266;49.514;8.294;2023-08-01T04:17:37;3.37;;;1.97;;
562;SDS011;266;49.514;8.294;2023-08-01T04:20:06;2.20;;;1.77;;
562;SDS011;266;49.514;8.294;2023-08-01T04:22:34;2.40;;;2.20;;
562;SDS011;266;49.514;8.294;2023-08-01T04:25:02;2.70;;;2.50;;
562;SDS011;266;49.514;8.294;2023-08-01T04:27:31;2.50;;;2.27;;
562;SDS011;266;49.514;8.294;2023-08-01T04:29:59;2.47;;;2.27;;
562;SDS011;266;49.514;8.294;2023-08-01T04:32:29;4.83;;;2.53;;
562;SDS011;266;49.514;8.294;2023-08-01T04:34:57;2.40;;;1.87;;
562;SDS011;266;49.514;8.294;2023-08-01T04:37:25;2.57;;;1.80;;
562;SDS011;266;49.514;8.294;2023-08-01T04:39:53;4.27;;;1.93;;
562;SDS011;266;49.514;8.294;2023-08-01T04:42:20;1.80;;;1.70;;
562;SDS011;266;49.514;8.294;2023-08-01T04:44:48;2.00;;;1.90;;
562;SDS011;266;49.514;8.294;2023-08-01T04:47:16;1.83;;;1.73;;
562;SDS011;266;49.514;8.294;2023-08-01T04:49:46;3.20;;;2.43;;
562;SDS011;266;49.514;8.294;2023-08-01T04:52:14;3.90;;;2.50;;
562;SDS011;266;49.514;8.294;2023-08-01T04:54:42;3.90;;;2.70;;
562;SDS011;266;49.514;8.294;2023-08-01T04:57:10;3.00;;;2.10;;
562;SDS011;266;49.514;8.294;2023-08-01T04:59:38;3.50;;;2.80;;
562;SDS011;266;49.514;8.294;2023-08-01T05:02:06;3.80;;;2.87;;
562;SDS011;266;49.514;8.294;2023-08-01T05:04:33;6.60;;;3.30;;
562;SDS011;266;49.514;8.294;2023-08-01T05:07:03;4.13;;;2.73;;
562;SDS011;266;49.514;8.294;2023-08-01T05:09:32;4.77;;;4.00;;
562;SDS011;266;49.514;8.294;2023-08-01T05:12:00;3.83;;;3.40;;
562;SDS011;266;49.514;8.294;2023-08-01T05:14:28;3.03;;;2.40;;
562;SDS011;266;49.514;8.294;2023-08-01T05:16:56;2.80;;;2.60;;
562;SDS011;266;49.514;8.294;2023-08-01T05:19:24;3.20;;;2.90;;
562;SDS011;266;49.514;8.294;2023-08-01T05:21:52;3.83;;;2.40;;
562;SDS011;266;49.514;8.294;2023-08-01T05:24:22;3.63;;;3.30;;
562;SDS011;266;49.514;8.294;2023-08-01T05:26:50;4.73;;;3.83;;
562;SDS011;266;49.514;8.294;2023-08-01T05:29:18;3.13;;;2.87;;
562;SDS011;266;49.514;8.294;2023-08-01T05:31:46;4.20;;;2.90;;
562;SDS011;266;49.514;8.294;2023-08-01T05:34:15;2.90;;;2.57;;
562;SDS011;266;49.514;8.294;2023-08-01T05:36:42;3.37;;;3.07;;
562;SDS011;266;49.514;8.294;2023-08-01T05:39:10;4.23;;;2.63;;
562;SDS011;266;49.514;8.294;2023-08-01T05:41:40;3.47;;;2.77;;
562;SDS011;266;49.514;8.294;2023-08-01T05:44:08;3.37;;;3.07;;
562;SDS011;266;49.514;8.294;2023-08-01T05:46:35;3.13;;;2.77;;
562;SDS011;266;49.514;8.294;2023-08-01T05:49:04;3.50;;;2.93;;
562;SDS011;266;49.514;8.294;2023-08-01T05:51:32;2.13;;;1.90;;
562;SDS011;266;49.514;8.294;2023-08-01T05:54:00;2.40;;;2.20;;
562;SDS011;266;49.514;8.294;2023-08-01T05:56:28;2.50;;;2.30;;
562;SDS011;266;49.514;8.294;2023-08-01T05:58:58;2.30;;;2.00;;
562;SDS011;266;49.514;8.294;2023-08-01T06:01:26;1.80;;;1.57;;
562;SDS011;266;49.514;8.294;2023-08-01T06:03:54;2.23;;;2.03;;
562;SDS011;266;49.514;8.294;2023-08-01T06:06:22;2.40;;;2.20;;
562;SDS011;266;49.514;8.294;2023-08-01T06:08:50;2.70;;;2.40;;
562;SDS011;266;49.514;8.294;2023-08-01T06:11:18;3.10;;;2.27;;
562;SDS011;266;49.514;8.294;2023-08-01T06:13:46;4.10;;;2.80;;
562;SDS011;266;49.514;8.294;2023-08-01T06:16:16;3.30;;;2.83;;
562;SDS011;266;49.514;8.294;2023-08-01T06:18:44;3.70;;;1.97;;
562;SDS011;266;49.514;8.294;2023-08-01T06:21:12;4.10;;;3.50;;
562;SDS011;266;49.514;8.294;2023-08-01T06:23:40;4.63;;;3.40;;
562;SDS011;266;49.514;8.294;2023-08-01T06:26:08;5.17;;;3.07;;
562;SDS011;266;49.514;8.294;2023-08-01T06:28:36;4.10;;;2.70;;
562;SDS011;266;49.514;8.294;2023-08-01T06:31:04;3.50;;;3.00;;
562;SDS011;266;49.514;8.294;2023-08-01T06:33:33;3.70;;;2.43;;
562;SDS011;266;49.514;8.294;2023-08-01T06:36:01;4.47;;;2.70;;
562;SDS011;266;49.514;8.294;2023-08-01T06:38:29;3.17;;;2.50;;
562;SDS011;266;49.514;8.294;2023-08-01T06:40:57;2.17;;;1.97;;
562;SDS011;266;49.514;8.294;2023-08-01T06:43:25;2.23;;;2.03;;
562;SDS011;266;49.514;8.294;2023-08-01T06:45:53;3.30;;;2.20;;
562;SDS011;266;49.514;8.294;2023-08-01T06:48:21;2.30;;;1.73;;
562;SDS011;266;49.514;8.294;2023-08-01T06:50:50;4.20;;;2.33;;
562;SDS011;266;49.514;8.294;2023-08-01T06:53:18;1.90;;;1.70;;
562;SDS011;266;49.514;8.294;2023-08-01T06:55:47;1.87;;;1.73;;
562;SDS011;266;49.514;8.294;2023-08-01T06:58:15;1.90;;;1.53;;
562;SDS011;266;49.514;8.294;2023-08-01T07:00:43;2.00;;;1.47;;
562;SDS011;266;49.514;8.294;2023-08-01T07:03:11;1.40;;;1.30;;
562;SDS011;266;49.514;8.294;2023-08-01T07:05:40;1.63;;;1.47;;
562;SDS011;266;49.514;8.294;2023-08-01T07:08:09;1.43;;;1.30;;
562;SDS011;266;49.514;8.294;2023-08-01T07:10:37;1.70;;;1.40;;
562;SDS011;266;49.514;8.294;2023-08-01T07:13:05;1.50;;;1.40;;
562;SDS011;266;49.514;8.294;2023-08-01T07:15:33;1.30;;;1.20;;
562;SDS011;266;49.514;8.294;2023-08-01T07:18:01;1.30;;;1.20;;
562;SDS011;266;49.514;8.294;2023-08-01T07:20:29;1.50;;;1.40;;
562;SDS011;266;49.514;8.294;2023-08-01T07:22:57;1.57;;;1.07;;
562;SDS011;266;49.514;8.294;2023-08-01T07:25:26;1.40;;;1.30;;
562;SDS011;266;49.514;8.294;2023-08-01T07:27:54;1.20;;;1.10;;
562;SDS011;266;49.514;8.294;2023-08-01T07:30:22;1.30;;;1.20;;
562;SDS011;266;49.514;8.294;2023-08-01T07:32:50;1.50;;;1.40;;
562;SDS011;266;49.514;8.294;2023-08-01T07:35:18;2.37;;;1.30;;
562;SDS011;266;49.514;8.294;2023-08-01T07:37:46;1.50;;;1.33;;
562;SDS011;266;49.514;8.294;2023-08-01T07:40:14;1.80;;;1.50;;
562;SDS011;266;49.514;8.294;2023-08-01T07:42:43;6.93;;;1.47;;
562;SDS011;266;49.514;8.294;2023-08-01T07:45:12;1.33;;;0.90;;
562;SDS011;266;49.514;8.294;2023-08-01T07:47:41;1.37;;;1.00;;
562;SDS011;266;49.514;8.294;2023-08-01T07:50:10;0.97;;;0.87;;
562;SDS011;266;49.514;8.294;2023-08-01T07:52:37;1.10;;;1.00;;
562;SDS011;266;49.514;8.294;2023-08-01T07:55:06;1.07;;;0.93;;
562;SDS011;266;49.514;8.294;2023-08-01T07:57:34;1.00;;;0.90;;
562;SDS011;266;49.514;8.294;2023-08-01T08:00:04;1.20;;;0.90;;
562;SDS011;266;49.514;8.294;2023-08-01T08:02:33;0.90;;;0.90;;
562;SDS011;266;49.514;8.294;2023-08-01T08:05:01;1.20;;;1.10;;
562;SDS011;266;49.514;8.294;2023-08-01T08:07:30;1.77;;;1.20;;
562;SDS011;266;49.514;8.294;2023-08-01T08:09:58;1.03;;;0.90;;
562;SDS011;266;49.514;8.294;2023-08-01T08:12:26;1.40;;;1.10;;
562;SDS011;266;49.514;8.294;2023-08-01T08:14:54;1.03;;;0.93;;
562;SDS011;266;49.514;8.294;2023-08-01T08:17:23;1.33;;;0.97;;
562;SDS011;266;49.514;8.294;2023-08-01T08:19:51;0.70;;;0.70;;
562;SDS011;266;49.514;8.294;2023-08-01T08:22:19;1.00;;;0.90;;
562;SDS011;266;49.514;8.294;2023-08-01T08:24:47;1.67;;;0.90;;
562;SDS011;266;49.514;8.294;2023-08-01T08:27:15;1.00;;;0.90;;
562;SDS011;266;49.514;8.294;2023-08-01T08:29:43;2.60;;;1.20;;
562;SDS011;266;49.514;8.294;2023-08-01T08:32:11;1.23;;;1.00;;
562;SDS011;266;49.514;8.294;2023-08-01T08:34:41;1.20;;;0.80;;
562;SDS011;266;49.514;8.294;2023-08-01T08:37:09;0.90;;;0.90;;
562;SDS011;266;49.514;8.294;2023-08-01T08:39:37;3.93;;;1.10;;
562;SDS011;266;49.514;8.294;2023-08-01T08:42:05;1.60;;;1.10;;
562;SDS011;266;49.514;8.294;2023-08-01T08:44:34;0.80;;;0.80;;
562;SDS011;266;49.514;8.294;2023-08-01T08:47:08;0.70;;;0.70;;
562;SDS011;266;49.514;8.294;2023-08-01T08:49:38;2.57;;;1.13;;
562;SDS011;266;49.514;8.294;2023-08-01T08:52:09;1.10;;;0.80;;
562;SDS011;266;49.514;8.294;2023-08-01T08:54:38;1.00;;;0.80;;
562;SDS011;266;49.514;8.294;2023-08-01T08:57:06;1.77;;;0.90;;
562;SDS011;266;49.514;8.294;2023-08-01T08:59:34;0.70;;;0.70;;
562;SDS011;266;49.514;8.294;2023-08-01T09:02:03;1.00;;;0.90;;
562;SDS011;266;49.514;8.294;2023-08-01T09:04:31;1.10;;;0.90;;
562;SDS011;266;49.514;8.294;2023-08-01T09:07:01;0.80;;;0.80;;
562;SDS011;266;49.514;8.294;2023-08-01T09:09:33;1.73;;;0.90;;
562;SDS011;266;49.514;8.294;2023-08-01T09:12:03;0.77;;;0.73;;
562;SDS011;266;49.514;8.294;2023-08-01T09:14:32;1.13;;;1.03;;
562;SDS011;266;49.514;8.294;2023-08-01T09:17:07;0.80;;;0.80;;
562;SDS011;266;49.514;8.294;2023-08-01T09:19:35;1.00;;;0.80;;
562;SDS011;266;49.514;8.294;2023-08-01T09:22:10;1.10;;;0.90;;
562;SDS011;266;49.514;8.294;2023-08-01T09:24:39;2.10;;;0.87;;
562;SDS011;266;49.514;8.294;2023-08-01T09:27:17;1.57;;;0.90;;
562;SDS011;266;49.514;8.294;2023-08-01T09:29:45;1.47;;;0.90;;
562;SDS011;266;49.514;8.294;2023-08-01T09:32:14;2.23;;;0.87;;
562;SDS011;266;49.514;8.294;2023-08-01T09:34:42;0.80;;;0.80;;
562;SDS011;266;49.514;8.294;2023-08-01T09:37:11;1.40;;;1.00;;
562;SDS011;266;49.514;8.294;2023-08-01T09:39:39;0.97;;;0.87;;
562;SDS011;266;49.514;8.294;2023-08-01T09:42:08;1.13;;;1.03;;
562;SDS011;266;49.514;8.294;2023-08-01T09:44:37;1.20;;;1.07;;
562;SDS011;266;49.514;8.294;2023-08-01T09:47:05;1.03;;;0.80;;
562;SDS011;266;49.514;8.294;2023-08-01T09:49:35;1.60;;;1.00;;
562;SDS011;266;49.514;8.294;2023-08-01T09:52:03;1.20;;;0.90;;
562;SDS011;266;49.514;8.294;2023-08-01T09:54:33;1.00;;;0.80;;
562;SDS011;266;49.514;8.294;2023-08-01T09:57:01;1.30;;;1.20;;
562;SDS011;266;49.514;8.294;2023-08-01T09:59:32;1.30;;;0.90;;
562;SDS011;266;49.514;8.294;2023-08-01T10:02:01;1.40;;;1.17;;
562;SDS011;266;49.514;8.294;2023-08-01T10:04:31;3.40;;;1.37;;
562;SDS011;266;49.514;8.294;2023-08-01T10:07:03;1.10;;;1.00;;
562;SDS011;266;49.514;8.294;2023-08-01T10:09:36;1.13;;;1.03;;
562;SDS011;266;49.514;8.294;2023-08-01T10:12:05;1.10;;;1.00;;
562;SDS011;266;49.514;8.294;2023-08-01T10:14:35;1.17;;;0.97;;
562;SDS011;266;49.514;8.294;2023-08-01T10:17:03;1.30;;;1.20;;
562;SDS011;266;49.514;8.294;2023-08-01T10:19:32;2.90;;;1.00;;
562;SDS011;266;49.514;8.294;2023-08-01T10:22:00;1.17;;;1.03;;
562;SDS011;266;49.514;8.294;2023-08-01T10:24:29;1.20;;;1.10;;
562;SDS011;266;49.514;8.294;2023-08-01T10:26:59;1.33;;;1.20;;
562;SDS011;266;49.514;8.294;2023-08-01T10:29:38;1.30;;;1.20;;
562;SDS011;266;49.514;8.294;2023-08-01T10:32:07;1.30;;;1.10;;
562;SDS011;266;49.514;8.294;2023-08-01T10:34:35;3.40;;;1.40;;
562;SDS011;266;49.514;8.294;2023-08-01T10:37:04;1.20;;;1.10;;
562;SDS011;266;49.514;8.294;2023-08-01T10:39:32;2.17;;;1.30;;
562;SDS011;266;49.514;8.294;2023-08-01T10:42:02;1.40;;;1.20;;
562;SDS011;266;49.514;8.294;2023-08-01T10:44:32;1.43;;;1.13;;
562;SDS011;266;49.514;8.294;2023-08-01T10:47:04;1.20;;;1.00;;
562;SDS011;266;49.514;8.294;2023-08-01T10:49:33;5.63;;;1.40;;
562;SDS011;266;49.514;8.294;2023-08-01T10:52:03;2.50;;;1.10;;
562;SDS011;266;49.514;8.294;2023-08-01T10:54:42;1.57;;;1.23;;
562;SDS011;266;49.514;8.294;2023-08-01T10:57:16;1.57;;;1.00;;
562;SDS011;266;49.514;8.294;2023-08-01T10:59:45;2.20;;;1.40;;
562;SDS011;266;49.514;8.294;2023-08-01T11:02:19;1.20;;;1.07;;
562;SDS011;266;49.514;8.294;2023-08-01T11:04:54;1.90;;;1.10;;
562;SDS011;266;49.514;8.294;2023-08-01T11:07:26;1.03;;;0.93;;
562;SDS011;266;49.514;8.294;2023-08-01T11:10:04;1.00;;;0.90;;
562;SDS011;266;49.514;8.294;2023-08-01T11:12:35;5.33;;;1.47;;
562;SDS011;266;49.514;8.294;2023-08-01T11:15:04;2.77;;;1.40;;
562;SDS011;266;49.514;8.294;2023-08-01T11:17:35;1.27;;;0.90;;
562;SDS011;266;49.514;8.294;2023-08-01T11:20:04;2.00;;;1.20;;
562;SDS011;266;49.514;8.294;2023-08-01T11:22:35;1.00;;;0.90;;
562;SDS011;266;49.514;8.294;2023-08-01T11:25:04;1.40;;;1.10;;
562;SDS011;266;49.514;8.294;2023-08-01T11:27:32;2.20;;;1.20;;
562;SDS011;266;49.514;8.294;2023-08-01T11:30:03;2.80;;;1.20;;
562;SDS011;266;49.514;8.294;2023-08-01T11:32:34;2.37;;;1.13;;
562;SDS011;266;49.514;8.294;2023-08-01T11:35:04;2.50;;;1.80;;
562;SDS011;266;49.514;8.294;2023-08-01T11:37:34;1.17;;;1.07;;
562;SDS011;266;49.514;8.294;2023-08-01T11:40:03;1.40;;;1.30;;
562;SDS011;266;49.514;8.294;2023-08-01T11:42:37;1.30;;;1.20;;
562;SDS011;266;49.514;8.294;2023-08-01T11:45:09;2.27;;;1.37;;
562;SDS011;266;49.514;8.294;2023-08-01T11:47:44;1.80;;;1.30;;
562;SDS011;266;49.514;8.294;2023-08-01T11:50:13;1.70;;;1.10;;
562;SDS011;266;49.514;8.294;2023-08-01T11:52:46;1.10;;;1.00;;
562;SDS011;266;49.514;8.294;2023-08-01T11:55:23;1.93;;;1.10;;
562;SDS011;266;49.514;8.294;2023-08-01T11:57:57;1.80;;;1.50;;
562;SDS011;266;49.514;8.294;2023-08-01T12:00:26;1.40;;;1.30;;
562;SDS011;266;49.514;8.294;2023-08-01T12:03:05;1.57;;;1.00;;
562;SDS011;266;49.514;8.294;2023-08-01T12:05:39;1.37;;;1.27;;
562;SDS011;266;49.514;8.294;2023-08-01T12:08:12;3.03;;;1.77;;
562;SDS011;266;49.514;8.294;2023-08-01T12:10:41;2.07;;;1.30;;
562;SDS011;266;49.514;8.294;2023-08-01T12:13:21;2.47;;;1.40;;
562;SDS011;266;49.514;8.294;2023-08-01T12:15:50;1.60;;;1.30;;
562;SDS011;266;49.514;8.294;2023-08-01T12:18:20;2.70;;;1.37;;
562;SDS011;266;49.514;8.294;2023-08-01T12:21:08;3.00;;;1.60;;
562;SDS011;266;49.514;8.294;2023-08-01T12:23:36;1.40;;;1.30;;
562;SDS011;266;49.514;8.294;2023-08-01T12:26:04;2.30;;;1.53;;
562;SDS011;266;49.514;8.294;2023-08-01T12:28:33;2.07;;;1.53;;
562;SDS011;266;49.514;8.294;2023-08-01T12:31:02;1.60;;;1.40;;
562;SDS011;266;49.514;8.294;2023-08-01T12:33:31;1.50;;;1.30;;
562;SDS011;266;49.514;8.294;2023-08-01T12:36:00;1.23;;;1.13;;
562;SDS011;266;49.514;8.294;2023-08-01T12:38:28;1.30;;;1.20;;
562;SDS011;266;49.514;8.294;2023-08-01T12:40:56;1.57;;;1.03;;
562;SDS011;266;49.514;8.294;2023-08-01T12:43:24;8.70;;;1.90;;
562;SDS011;266;49.514;8.294;2023-08-01T12:45:53;2.37;;;1.40;;
562;SDS011;266;49.514;8.294;2023-08-01T12:48:23;1.17;;;1.07;;
562;SDS011;266;49.514;8.294;2023-08-01T12:50:52;3.20;;;1.40;;
562;SDS011;266;49.514;8.294;2023-08-01T12:53:20;4.13;;;1.30;;
562;SDS011;266;49.514;8.294;2023-08-01T12:55:49;1.20;;;1.10;;
562;SDS011;266;49.514;8.294;2023-08-01T12:58:18;3.73;;;1.43;;
562;SDS011;266;49.514;8.294;2023-08-01T13:00:46;1.63;;;1.20;;
562;SDS011;266;49.514;8.294;2023-08-01T13:03:15;2.13;;;1.20;;
562;SDS011;266;49.514;8.294;2023-08-01T13:05:49;1.60;;;1.50;;
562;SDS011;266;49.514;8.294;2023-08-01T13:08:19;1.57;;;1.47;;
562;SDS011;266;49.514;8.294;2023-08-01T13:10:47;1.80;;;1.53;;
562;SDS011;266;49.514;8.294;2023-08-01T13:13:16;1.60;;;1.50;;
562;SDS011;266;49.514;8.294;2023-08-01T13:15:44;2.27;;;1.60;;
562;SDS011;266;49.514;8.294;2023-08-01T13:18:13;1.40;;;1.20;;
562;SDS011;266;49.514;8.294;2023-08-01T13:20:42;2.30;;;1.63;;
562;SDS011;266;49.514;8.294;2023-08-01T13:23:10;1.40;;;1.30;;
562;SDS011;266;49.514;8.294;2023-08-01T13:25:39;4.10;;;1.43;;
562;SDS011;266;49.514;8.294;2023-08-01T13:28:07;1.80;;;1.40;;
562;SDS011;266;49.514;8.294;2023-08-01T13:30:35;2.03;;;1.50;;
562;SDS011;266;49.514;8.294;2023-08-01T13:33:04;2.90;;;1.73;;
562;SDS011;266;49.514;8.294;2023-08-01T13:35:32;1.60;;;1.20;;
562;SDS011;266;49.514;8.294;2023-08-01T13:38:03;1.40;;;1.30;;
562;SDS011;266;49.514;8.294;2023-08-01T13:40:31;3.80;;;1.27;;
562;SDS011;266;49.514;8.294;2023-08-01T13:42:59;2.83;;;1.77;;
562;SDS011;266;49.514;8.294;2023-08-01T13:45:29;1.83;;;1.50;;
562;SDS011;266;49.514;8.294;2023-08-01T13:47:58;1.50;;;1.40;;
562;SDS011;266;49.514;8.294;2023-08-01T13:50:28;2.50;;;1.47;;
562;SDS011;266;49.514;8.294;2023-08-01T13:52:57;1.90;;;1.70;;
562;SDS011;266;49.514;8.294;2023-08-01T13:55:26;2.93;;;1.53;;
562;SDS011;266;49.514;8.294;2023-08-01T13:57:54;2.23;;;1.67;;
562;SDS011;266;49.514;8.294;2023-08-01T14:00:22;1.93;;;1.57;;
562;SDS011;266;49.514;8.294;2023-08-01T14:02:50;2.43;;;1.40;;
562;SDS011;266;49.514;8.294;2023-08-01T14:05:18;2.10;;;1.20;;
562;SDS011;266;49.514;8.294;2023-08-01T14:07:46;1.90;;;1.30;;
562;SDS011;266;49.514;8.294;2023-08-01T14:10:14;1.60;;;1.40;;
562;SDS011;266;49.514;8.294;2023-08-01T14:12:44;1.80;;;1.40;;
562;SDS011;266;49.514;8.294;2023-08-01T14:15:12;1.30;;;1.20;;
562;SDS011;266;49.514;8.294;2023-08-01T14:17:41;1.23;;;1.13;;
562;SDS011;266;49.514;8.294;2023-08-01T14:20:09;1.40;;;1.17;;
562;SDS011;266;49.514;8.294;2023-08-01T14:22:38;2.10;;;1.30;;
562;SDS011;266;49.514;8.294;2023-08-01T14:25:08;1.13;;;1.03;;
562;SDS011;266;49.514;8.294;2023-08-01T14:27:37;1.33;;;1.10;;
562;SDS011;266;49.514;8.294;2023-08-01T14:30:07;1.43;;;1.30;;
562;SDS011;266;49.514;8.294;2023-08-01T14:32:36;1.30;;;1.10;;
562;SDS011;266;49.514;8.294;2023-08-01T14:35:06;1.90;;;1.20;;
562;SDS011;266;49.514;8.294;2023-08-01T14:37:37;1.83;;;1.27;;
562;SDS011;266;49.514;8.294;2023-08-01T14:40:08;2.80;;;1.73;;
562;SDS011;266;49.514;8.294;2023-08-01T14:42:37;1.87;;;1.57;;
562;SDS011;266;49.514;8.294;2023-08-01T14:45:09;1.90;;;1.50;;
562;SDS011;266;49.514;8.294;2023-08-01T14:47:38;2.97;;;1.60;;
562;SDS011;266;49.514;8.294;2023-08-01T14:50:07;1.30;;;1.20;;
562;SDS011;266;49.514;8.294;2023-08-01T14:52:35;2.53;;;1.50;;
562;SDS011;266;49.514;8.294;2023-08-01T14:55:03;2.90;;;1.20;;
562;SDS011;266;49.514;8.294;2023-08-01T14:57:32;1.77;;;1.63;;
562;SDS011;266;49.514;8.294;2023-08-01T15:00:00;2.60;;;1.30;;
562;SDS011;266;49.514;8.294;2023-08-01T15:02:30;3.43;;;1.43;;
562;SDS011;266;49.514;8.294;2023-08-01T15:04:58;1.97;;;1.50;;
562;SDS011;266;49.514;8.294;2023-08-01T15:07:28;2.30;;;1.50;;
562;SDS011;266;49.514;8.294;2023-08-01T15:09:56;1.33;;;1.20;;
562;SDS011;266;49.514;8.294;2023-08-01T15:12:24;2.60;;;1.50;;
562;SDS011;266;49.514;8.294;2023-08-01T15:14:52;2.30;;;1.23;;
562;SDS011;266;49.514;8.294;2023-08-01T15:17:21;3.30;;;1.37;;
562;SDS011;266;49.514;8.294;2023-08-01T15:19:52;4.00;;;1.50;;
562;SDS011;266;49.514;8.294;2023-08-01T15:22:21;2.20;;;1.30;;
562;SDS011;266;49.514;8.294;2023-08-01T15:24:49;2.10;;;1.40;;
562;SDS011;266;49.514;8.294;2023-08-01T15:27:16;2.33;;;1.30;;
562;SDS011;266;49.514;8.294;2023-08-01T15:29:45;4.00;;;1.50;;
562;SDS011;266;49.514;8.294;2023-08-01T15:32:13;1.83;;;1.43;;
562;SDS011;266;49.514;8.294;2023-08-01T15:34:41;1.50;;;1.30;;
562;SDS011;266;49.514;8.294;2023-08-01T15:37:11;4.83;;;1.50;;
562;SDS011;266;49.514;8.294;2023-08-01T15:39:40;1.63;;;1.20;;
562;SDS011;266;49.514;8.294;2023-08-01T15:42:08;1.77;;;1.63;;
562;SDS011;266;49.514;8.294;2023-08-01T15:44:36;1.47;;;1.37;;
562;SDS011;266;49.514;8.294;2023-08-01T15:47:05;4.23;;;1.90;;
562;SDS011;266;49.514;8.294;2023-08-01T15:49:33;4.00;;;1.60;;
562;SDS011;266;49.514;8.294;2023-08-01T15:52:01;1.30;;;1.20;;
562;SDS011;266;49.514;8.294;2023-08-01T15:54:31;1.20;;;1.10;;